Last 7 Days

Top of 22 - 10,067ft

Hourly Data | America/Los_Angeles
as of 7/14/24 5:00 PM PDT
Date & Time Temp (°F) RH (%) Dew Pt (°F) Wet Bulb (°F) Wind Dir (°) Wind Spd (mph) Wind Gust (mph) Wind Gst Dir (°) Daily Min Temp (°F) Daily Max Temp (°F) Daily Max Wind (mph)
7/14/24 - 1700 69.3 36 41.1 53.6 WSW | 247 12.0 25.6 NW | 312 47.0 75.3 42.7
7/14/24 - 1600 69.2 36 41.3 53.6 SW | 216 8.1 26.5 SSW | 204 47.0 75.3 42.7
7/14/24 - 1500 72.4 34 42.5 55.1 S | 180 4.2 17.0 W | 273 47.0 75.3 42.7
7/14/24 - 1400 64.5 44 42.1 52.4 SSW | 195 6.6 20.9 SSE | 157 47.0 68.4 42.7
7/14/24 - 1300 61.0 48 41.4 50.8 SSW | 202 9.5 28.6 SW | 227 47.0 63.4 42.7
7/14/24 - 1200 57.8 55 41.5 49.6 SSW | 200 11.4 27.9 SSW | 212 47.0 59.8 42.7
7/14/24 - 1100 50.6 70 40.9 46.1 SW | 219 11.7 22.2 SW | 216 47.0 55.9 42.7
7/14/24 - 1000 52.2 70 42.6 47.7 SW | 236 18.7 41.7 SW | 225 48.0 55.9 42.7
7/14/24 - 0900 53.2 69 43.4 48.5 SW | 221 20.6 42.7 SW | 223 52.1 55.9 42.7
7/14/24 - 0800 52.8 66 41.8 47.6 SW | 228 21.3 30.1 SSW | 212 52.1 55.9 30.1
7/14/24 - 0700 53.0 64 41.1 47.3 SW | 229 21.5 28.4 SW | 224 52.3 55.9 28.4
7/14/24 - 0600 53.0 65 41.7 47.6 SW | 230 18.4 22.3 SW | 233 52.3 55.9 23.2
7/14/24 - 0500 54.8 59 40.6 47.9 SW | 222 19.0 23.2 SW | 222 52.3 55.9 23.2
7/14/24 - 0400 53.2 55 37.2 45.7 S | 171 6.0 15.2 SW | 215 52.3 54.1 15.2
7/14/24 - 0300 52.8 57 37.9 45.8 ESE | 122 4.6 7.2 ESE | 110 52.3 53.8 8.9
7/14/24 - 0200 53.4 59 39.4 46.7 E | 100 5.3 8.9 SE | 132 53.2 53.8 8.9
7/14/24 - 0100 53.2 60 39.6 46.7 E | 80 5.3 12.5 E | 83 49.7 77.3 70.6
7/14/24 - 0000 53.7 64 41.9 48.0 E | 92 11.9 16.2 E | 82 49.7 77.3 70.6
7/13/24 - 2300 51.1 75 43.6 47.7 ESE | 121 4.8 10.8 E | 85 49.7 77.3 70.6
7/13/24 - 2200 51.7 80 45.9 49.2 ESE | 104 9.2 18.4 ENE | 69 50.9 77.3 70.6
7/13/24 - 2100 54.6 66 43.1 49.0 E | 87 15.5 32.8 E | 87 52.2 77.3 70.6
7/13/24 - 2000 60.0 44 37.8 48.8 SW | 226 21.1 25.7 SW | 235 52.2 77.3 70.6
7/13/24 - 1900 57.6 45 36.6 47.4 WSW | 237 20.0 28.0 WSW | 256 52.2 77.3 70.6
7/13/24 - 1800 53.5 59 39.7 46.9 SW | 222 32.7 52.4 S | 191 52.2 77.3 70.6
7/13/24 - 1700 60.0 49 40.2 49.8 SSE | 160 37.9 70.6 SE | 137 52.8 77.3 70.6
7/13/24 - 1600 73.8 26 36.4 53.1 SW | 216 9.6 26.8 SW | 214 56.5 77.3 37.9
7/13/24 - 1500 73.9 25 36.0 53.0 S | 179 3.6 16.8 W | 264 56.5 77.0 37.9
7/13/24 - 1400 69.1 30 36.2 51.5 ENE | 77 10.2 32.9 ENE | 76 56.5 72.9 37.9
7/13/24 - 1300 70.7 26 34.6 51.5 SE | 124 17.4 33.5 ENE | 67 56.5 72.9 37.9
7/13/24 - 1200 70.6 26 34.0 51.2 ESE | 112 11.8 35.0 SE | 130 56.5 72.9 37.9
7/13/24 - 1100 65.6 31 34.4 49.6 SW | 225 10.3 25.1 SW | 216 56.5 69.6 37.9
7/13/24 - 1000 62.4 33 33.1 48.0 SW | 225 18.7 28.4 SW | 224 56.5 64.6 37.9
7/13/24 - 0900 61.4 33 31.9 47.2 SW | 224 24.3 37.9 SW | 225 56.5 64.6 37.9
7/13/24 - 0800 63.1 28 29.6 47.1 SW | 217 14.9 29.6 SW | 221 56.5 64.6 29.6
7/13/24 - 0700 60.8 30 28.9 45.9 SSE | 159 5.3 12.1 SE | 135 56.5 64.6 21.9
7/13/24 - 0600 61.4 30 29.4 46.3 ENE | 58 4.7 8.2 NE | 52 56.5 64.6 21.9
7/13/24 - 0500 58.0 34 29.7 45.0 SE | 141 7.9 14.5 N | 3 56.5 64.6 21.9
7/13/24 - 0400 58.6 33 29.8 45.3 S | 178 10.7 16.7 NE | 52 57.2 64.6 21.9
7/13/24 - 0300 60.4 31 30.0 46.1 E | 86 13.3 21.9 N | 11 59.1 64.6 21.9
7/13/24 - 0200 62.5 29 30.0 47.0 S | 183 8.5 16.9 N | 11 61.1 64.6 16.9
7/13/24 - 0100 61.0 32 30.9 46.7 W | 259 8.5 11.9 NW | 306 58.7 79.2 55.2
7/13/24 - 0000 64.2 29 31.2 48.0 SSW | 203 7.8 16.6 N | 1 58.7 79.2 55.2
7/12/24 - 2300 62.6 36 35.1 48.9 SW | 220 11.4 22.4 SSW | 199 58.7 79.2 55.2
7/12/24 - 2200 63.2 36 35.3 49.1 SW | 215 19.2 33.0 SSW | 212 58.7 79.2 55.2
7/12/24 - 2100 63.8 39 37.6 50.4 SW | 233 21.6 30.3 SW | 220 58.7 79.2 55.2
7/12/24 - 2000 67.2 24 29.2 48.5 SW | 224 19.2 24.3 SW | 231 58.7 79.2 55.2
7/12/24 - 1900 69.6 24 31.0 49.9 SW | 234 15.2 20.3 WSW | 250 58.7 79.2 55.2
7/12/24 - 1800 71.5 23 31.7 50.8 SW | 228 8.6 18.8 SW | 224 58.7 79.2 55.2
7/12/24 - 1700 72.3 23 32.2 51.2 SW | 232 8.6 19.3 WSW | 239 58.7 79.2 55.2
7/12/24 - 1600 68.7 24 30.4 49.4 S | 169 23.5 55.2 SE | 138 58.7 79.2 55.2
7/12/24 - 1500 72.5 21 30.1 50.7 S | 173 18.5 35.7 SE | 129 58.7 79.2 35.7
7/12/24 - 1400 75.6 17 28.0 51.0 SE | 137 9.9 21.3 ESE | 106 58.7 79.2 31.6
7/12/24 - 1300 77.3 17 28.5 51.7 ESE | 107 10.3 19.0 E | 96 58.7 79.2 31.6
7/12/24 - 1200 76.2 17 28.6 51.4 E | 87 9.8 22.3 E | 97 58.7 78.6 31.6
7/12/24 - 1100 74.8 20 31.4 51.8 E | 89 6.6 17.0 E | 101 58.7 78.6 31.6
7/12/24 - 1000 69.3 23 29.8 49.5 NE | 52 4.3 14.3 E | 86 58.7 71.2 31.6
7/12/24 - 0900 67.4 23 28.5 48.4 S | 176 0.9 2.1 NNW | 341 58.7 71.2 31.6
7/12/24 - 0800 62.2 26 27.3 46.0 S | 181 1.4 6.3 NNE | 19 58.7 65.6 31.6
7/12/24 - 0700 62.1 25 25.8 45.6 SE | 145 2.1 5.8 NE | 53 58.7 65.6 31.6
7/12/24 - 0600 60.5 26 25.3 44.7 SSW | 196 3.6 15.9 ENE | 78 58.7 65.6 31.6
7/12/24 - 0500 61.7 25 25.1 45.2 ENE | 59 4.6 9.7 ENE | 62 60.7 65.6 31.6
7/12/24 - 0400 63.3 24 25.4 46.0 S | 187 1.5 7.4 NE | 51 60.7 65.6 31.6
7/12/24 - 0300 62.6 25 26.2 45.9 S | 185 5.3 14.5 ESE | 123 61.7 64.9 31.6
7/12/24 - 0200 63.6 24 25.8 46.2 SSW | 203 11.6 31.6 SSW | 204 62.6 64.9 31.6
7/12/24 - 0100 65.4 22 26.0 47.0 SSW | 206 17.5 23.7 SW | 219 61.9 80.9 38.8
7/12/24 - 0000 64.0 25 27.5 46.8 SW | 228 20.8 24.2 SW | 233 61.9 80.9 38.8
7/11/24 - 2300 64.5 30 32.4 48.6 SW | 233 23.7 26.8 SW | 233 61.9 80.9 38.8
7/11/24 - 2200 63.8 34 35.1 49.3 SW | 222 27.7 33.3 SW | 222 61.9 80.9 38.8
7/11/24 - 2100 65.6 35 37.4 50.8 SW | 229 24.9 29.8 SW | 221 61.9 80.9 38.8
7/11/24 - 2000 66.9 31 35.0 50.4 SW | 220 25.0 33.8 SSW | 200 61.9 80.9 38.8
7/11/24 - 1900 73.6 19 28.9 50.7 SW | 217 22.6 38.8 SSW | 205 61.9 80.9 38.8
7/11/24 - 1800 73.1 15 22.4 48.9 SW | 221 18.0 35.7 SW | 226 61.9 80.9 35.7
7/11/24 - 1700 77.1 13 22.5 50.2 SSW | 210 15.4 34.7 SSW | 202 61.9 80.9 35.6
7/11/24 - 1600 76.2 14 22.7 50.0 S | 184 14.1 33.9 SW | 217 61.9 80.9 35.6
7/11/24 - 1500 78.9 12 22.1 50.7 S | 188 13.8 32.4 SW | 224 61.9 80.9 35.6
7/11/24 - 1400 76.4 12 20.1 49.5 SSW | 205 9.0 28.8 SW | 214 61.9 80.0 35.6
7/11/24 - 1300 78.1 12 20.5 50.1 SSW | 205 7.8 22.5 SSW | 201 61.9 80.0 35.6
7/11/24 - 1200 74.2 13 20.4 48.8 SSW | 205 6.6 17.6 SSW | 202 61.9 77.8 35.6
7/11/24 - 1100 72.6 14 19.8 48.2 SW | 221 8.3 20.2 SSW | 207 61.9 74.1 35.6
7/11/24 - 1000 68.8 15 19.5 46.7 SSW | 200 8.2 17.1 SSW | 204 61.9 69.7 35.6
7/11/24 - 0900 68.8 16 20.1 46.8 SE | 145 4.8 12.1 SE | 138 61.9 69.7 35.6
7/11/24 - 0800 63.8 16 17.2 44.2 ESE | 118 5.0 13.0 SE | 138 61.9 67.8 35.6
7/11/24 - 0700 62.4 14 12.5 42.8 SE | 141 3.0 15.2 SE | 143 61.9 65.0 35.6
7/11/24 - 0600 63.7 13 11.6 43.2 SSE | 167 8.0 22.7 SSW | 206 62.0 65.0 35.6
7/11/24 - 0500 62.4 14 11.8 42.6 SSW | 210 21.3 28.5 E | 83 62.1 64.3 35.6
7/11/24 - 0400 63.0 13 11.6 42.9 SW | 225 25.4 29.9 SW | 230 62.5 64.3 35.6
7/11/24 - 0300 63.5 13 11.1 43.0 SW | 220 27.5 33.4 SW | 216 63.1 64.3 35.6
7/11/24 - 0200 63.4 13 11.0 43.0 SW | 218 30.5 35.6 SW | 217 63.1 63.6 35.6
7/11/24 - 0100 64.1 12 11.1 43.3 SW | 216 31.9 37.5 SW | 218 58.4 76.4 53.8
7/11/24 - 0000 63.8 15 15.6 43.9 SW | 217 29.5 36.4 SW | 217 58.4 76.4 53.8
7/10/24 - 2300 63.9 18 19.3 44.7 SW | 220 29.4 35.5 SW | 214 58.4 76.4 53.8
7/10/24 - 2200 64.6 17 18.3 44.8 SW | 223 29.3 34.8 SW | 225 58.4 76.4 53.8
7/10/24 - 2100 65.0 15 16.4 44.6 SW | 228 30.4 37.4 SW | 228 58.4 76.4 53.8
7/10/24 - 2000 68.5 15 18.7 46.4 SW | 227 30.4 42.5 SW | 225 58.4 76.4 53.8
7/10/24 - 1900 71.5 14 20.2 47.8 SW | 222 29.0 41.6 SW | 229 58.4 76.4 53.8
7/10/24 - 1800 74.4 13 20.3 48.9 SW | 218 27.3 48.8 SW | 221 58.4 76.4 53.8
7/10/24 - 1700 73.9 13 19.4 48.5 SW | 217 26.0 43.8 SSW | 212 58.4 76.4 53.8
7/10/24 - 1600 74.6 12 18.6 48.6 SW | 218 24.9 46.8 SW | 226 58.4 76.4 53.8
7/10/24 - 1500 72.8 12 16.9 47.7 SW | 216 31.2 53.8 SW | 214 58.4 76.4 53.8
7/10/24 - 1400 73.7 11 15.8 47.8 SW | 216 32.6 53.0 SW | 214 58.4 76.4 53.0
7/10/24 - 1300 73.1 11 16.1 47.6 SSW | 203 21.6 46.9 SW | 224 58.4 76.4 46.9
7/10/24 - 1200 75.1 9 12.9 47.8 SSE | 168 19.0 37.0 SSW | 192 58.4 76.4 37.0
7/10/24 - 1100 71.9 12 15.1 47.1 SSE | 167 9.2 27.5 ESE | 123 58.4 75.4 27.5
7/10/24 - 1000 70.1 20 26.8 49.0 ESE | 120 3.9 11.2 SW | 226 58.4 70.8 19.3
7/10/24 - 0900 65.8 25 29.2 48.0 E | 97 2.5 7.7 SE | 130 58.4 69.8 19.3
7/10/24 - 0800 63.2 23 25.1 45.8 E | 97 2.0 8.3 ENE | 67 58.4 65.7 19.3
7/10/24 - 0700 61.5 25 24.8 45.0 ESE | 114 1.1 3.4 ESE | 107 58.4 65.7 19.3
7/10/24 - 0600 59.7 25 24.0 44.1 E | 86 3.9 9.2 E | 92 58.4 64.4 19.3
7/10/24 - 0500 59.9 25 24.2 44.2 ESE | 110 1.9 5.9 SE | 136 58.4 64.4 19.3
7/10/24 - 0400 62.0 23 24.0 45.1 ESE | 122 6.0 9.9 SE | 125 59.8 64.4 19.3
7/10/24 - 0300 61.0 21 20.7 43.8 SSE | 150 5.2 9.1 SSW | 202 59.8 64.2 19.3
7/10/24 - 0200 62.8 19 19.8 44.4 SSW | 194 13.3 19.3 SSW | 193 62.1 64.2 19.3
7/10/24 - 0100 62.8 20 21.2 44.7 SSW | 192 22.6 30.4 S | 190 61.1 78.8 47.5
7/10/24 - 0000 62.2 23 24.4 45.3 SSW | 202 32.2 39.1 SSW | 202 61.1 78.8 47.5
7/9/24 - 2300 62.6 31 31.2 47.4 SSW | 204 38.1 43.2 SSW | 207 61.1 78.8 47.5
7/9/24 - 2200 62.4 27 28.0 46.4 SSW | 211 37.0 47.5 SSW | 213 61.1 78.8 47.5
7/9/24 - 2100 63.0 28 29.1 46.9 SW | 223 37.7 45.0 SSW | 212 61.1 78.8 45.0
7/9/24 - 2000 66.0 28 31.9 48.9 SW | 226 36.0 42.0 SW | 229 61.1 78.8 44.7
7/9/24 - 1900 70.1 20 27.6 49.2 SW | 230 33.3 44.7 SW | 224 61.1 78.8 44.7
7/9/24 - 1800 73.0 18 26.9 50.0 SW | 229 30.1 43.1 SW | 218 61.1 78.8 44.0
7/9/24 - 1700 74.2 18 28.3 50.7 SW | 226 28.3 44.0 SW | 217 61.1 78.8 44.0
7/9/24 - 1600 75.9 17 27.9 51.2 SW | 218 21.9 39.9 SW | 225 61.1 78.8 39.9
7/9/24 - 1500 75.0 16 25.2 50.2 SW | 223 18.9 34.6 SW | 219 61.1 78.8 36.8
7/9/24 - 1400 75.9 11 17.6 48.9 SW | 221 16.5 29.4 SSW | 200 61.1 78.8 36.8
7/9/24 - 1300 74.6 9 13.0 47.7 SW | 224 15.5 26.1 SW | 234 61.1 78.8 36.8
7/9/24 - 1200 77.3 13 22.8 50.4 SSE | 159 7.5 21.4 SSW | 205 61.1 78.8 36.8
7/9/24 - 1100 74.0 16 25.5 49.9 ESE | 102 3.2 9.2 NE | 56 61.1 75.5 36.8
7/9/24 - 1000 70.6 18 24.9 48.6 E | 91 3.2 9.2 E | 98 61.1 73.1 36.8
7/9/24 - 0900 67.0 13 12.8 44.9 ESE | 121 5.5 10.3 SE | 146 61.1 68.3 36.8
7/9/24 - 0800 66.1 8 2.0 43.0 SSE | 167 9.6 17.4 S | 191 61.1 67.6 36.8
7/9/24 - 0700 62.1 7 -2.1 40.8 S | 178 15.2 20.9 S | 185 61.1 65.1 36.8
7/9/24 - 0600 62.0 7 -2.6 40.7 S | 175 16.9 21.5 S | 187 61.2 65.1 36.8
7/9/24 - 0500 63.9 7 -0.1 41.8 S | 178 16.8 22.2 S | 184 61.2 65.1 36.8
7/9/24 - 0400 62.1 8 0.7 41.1 S | 186 19.7 28.0 SSW | 201 61.2 63.6 36.8
7/9/24 - 0300 62.4 11 7.7 42.1 SSW | 203 29.4 34.4 SSW | 195 61.4 63.6 36.8
7/9/24 - 0200 62.7 16 15.4 43.5 SSW | 200 33.1 36.8 SSW | 205 61.5 63.6 36.8
7/9/24 - 0100 62.0 20 20.9 44.3 SSW | 204 35.0 38.5 SSW | 206 60.0 80.1 47.4
7/9/24 - 0000 62.6 24 25.4 45.7 SSW | 206 36.6 41.0 SSW | 207 60.0 80.1 47.4
7/8/24 - 2300 62.6 28 28.7 46.6 SSW | 207 39.6 44.3 SSW | 212 60.0 80.1 47.4
7/8/24 - 2200 63.0 27 28.6 46.8 SSW | 209 41.0 46.0 SW | 215 60.0 80.1 47.4
7/8/24 - 2100 64.3 28 30.6 47.9 SW | 218 37.4 47.4 SW | 218 60.0 80.1 47.4
7/8/24 - 2000 67.0 28 33.0 49.7 SW | 227 31.9 47.1 SW | 223 60.0 80.1 47.1
7/8/24 - 1900 72.7 25 35.1 52.3 SW | 223 25.9 44.2 SW | 223 60.0 80.1 44.2
7/8/24 - 1800 73.8 25 35.9 52.9 SW | 217 22.4 38.5 SSW | 200 60.0 80.1 39.9
7/8/24 - 1700 76.3 23 35.3 53.5 SW | 216 17.7 35.7 SSW | 206 60.0 80.1 39.9
7/8/24 - 1600 76.3 20 32.8 52.7 SW | 217 18.1 35.0 SW | 227 60.0 80.1 39.9
7/8/24 - 1500 76.8 19 30.9 52.3 SW | 214 19.4 39.9 SW | 221 60.0 80.1 39.9
7/8/24 - 1400 76.4 18 29.1 51.6 SSW | 209 19.3 38.4 SSW | 213 60.0 80.1 38.4
7/8/24 - 1300 77.4 17 29.8 52.1 S | 175 13.4 32.5 SE | 143 60.0 79.5 32.5
7/8/24 - 1200 77.6 20 33.4 53.3 SE | 145 7.3 17.5 SW | 228 60.0 79.2 18.9
7/8/24 - 1100 74.6 24 35.7 53.1 E | 94 8.0 18.9 ESE | 110 60.0 78.4 18.9
7/8/24 - 1000 69.8 25 32.9 50.6 ESE | 117 3.2 11.2 NW | 323 60.0 71.8 14.5
7/8/24 - 0900 67.9 26 31.9 49.6 ESE | 109 2.0 9.3 N | 10 60.0 71.7 14.5
7/8/24 - 0800 62.6 29 29.8 47.0 S | 174 0.9 3.8 SW | 232 60.0 66.3 14.5
7/8/24 - 0700 62.6 29 29.6 46.9 SW | 228 6.5 12.3 SW | 236 60.0 66.3 14.5
7/8/24 - 0600 60.3 32 30.3 46.2 SW | 230 10.1 14.5 SW | 233 60.0 66.3 14.5
7/8/24 - 0500 62.0 31 31.0 47.1 SW | 230 7.6 13.0 WSW | 244 60.4 66.3 14.2
7/8/24 - 0400 61.4 33 31.8 47.1 SW | 231 7.8 14.2 SW | 235 60.7 66.3 14.2
7/8/24 - 0300 62.0 31 31.0 47.1 SW | 231 4.3 11.7 WSW | 241 61.2 66.3 11.7
7/8/24 - 0200 64.7 27 29.9 47.8 SW | 230 2.0 6.0 SW | 229 62.5 66.3 6.0
7/8/24 - 0100 62.8 31 31.9 47.7 SW | 224 4.8 10.5 WSW | 241 57.4 83.4 40.5
7/8/24 - 0000 65.0 33 35.1 49.7 SW | 235 11.2 18.4 SW | 225 57.4 83.4 40.5
7/7/24 - 2300 63.8 38 37.4 50.1 SW | 230 19.5 26.7 SW | 229 57.4 83.4 40.5
7/7/24 - 2200 64.6 37 37.9 50.6 SW | 229 26.0 38.6 SW | 225 57.4 83.4 40.5
7/7/24 - 2100 65.1 36 37.7 50.7 SW | 228 30.1 35.9 SW | 230 57.4 83.4 40.5
7/7/24 - 2000 69.4 34 39.5 53.0 SW | 227 29.6 39.2 SW | 214 57.4 83.4 40.5
7/7/24 - 1900 72.9 30 39.4 54.0 SW | 228 27.4 36.8 SSW | 213 57.4 83.4 40.5
7/7/24 - 1800 77.1 22 35.3 53.7 SW | 223 25.2 36.2 SW | 227 57.4 83.4 40.5
Max 78.9 80 45.9 55.1 - 41.0 70.6 - 63.1 83.4 70.6
Avg 65.9 27 27.9 48.0 - 16.1 26.7 - - - -
Min 50.6 7 -2.6 40.7 - 0.9 2.1 - 47.0 53.8 6.0